Impacts TAF Board
For situational awareness. Not to be used for flight planning purposes.
IDs:

KLFT - Lafayette Rgnl, LA, US

Issued at 1720 UTC 02 Oct 2022
Updated at 2228 UTC 02 Oct 2022
Potential Impact None Slight Moderate High
Time2153Z 02/23Z 03/00Z 03/01Z 03/02Z 03/03Z 03/04Z 03/05Z 03/06Z 03/07Z 03/08Z 03/09Z 03/10Z 03/11Z>>
Type OBS PRVL PRVL PRVL PRVL PRVL PRVL PRVL PRVL PRVL PRVL PRVL PRVL PRVL
VIS 10 >6 >6 >6 >6 >6 >6 >6 >6 >6 >6 >6 >6 >6
CIG -- -- -- -- -- -- -- -- -- -- -- -- -- --
Cover CLR SKC SKC SKC SKC SKC SKC SKC SKC SKC SKC SKC SKC SKC
FltCat VFR VFR VFR VFR VFR VFR VFR VFR VFR VFR VFR VFR VFR VFR
WX -- -- -- -- -- -- -- -- -- -- -- -- -- --
WDir 40 10 10 VRB VRB VRB VRB VRB VRB VRB VRB VRB VRB VRB
WSpd 8 7 7 3 3 3 3 3 3 3 3 3 3 3
WGst -- -- -- -- -- -- -- -- -- -- -- -- -- --
WSHgt -- -- -- -- -- -- -- -- -- -- -- -- -- --
WSDir -- -- -- -- -- -- -- -- -- -- -- -- -- --
WSSpd -- -- -- -- -- -- -- -- -- -- -- -- -- --
R04/22
XWnd -0 3 3 VRB VRB VRB VRB VRB VRB VRB VRB VRB VRB VRB
HWnd 8 6 6 VRB VRB VRB VRB VRB VRB VRB VRB VRB VRB VRB
R11/29
XWnd 8 7 7 VRB VRB VRB VRB VRB VRB VRB VRB VRB VRB VRB
HWnd 3 -1 -1 VRB VRB VRB VRB VRB VRB VRB VRB VRB VRB VRB
Raw TAF
KLFT 021720Z 0218/0318 01007KT P6SM SKC
  FM030100 VRB03KT P6SM SKC


Raw METAR
KLFT 022153Z 04008KT 10SM CLR 29/08 A3004 RMK AO2 SLP172 T02890083
KLFT 022053Z 03010KT 10SM CLR 30/08 A3004 RMK AO2 SLP173 T03000083 56018
KLFT 021953Z 04007KT 10SM CLR 30/08 A3005 RMK AO2 SLP175 T03000083

METAR Board
Radar Display
Forecast Discussion
For situational awareness. Not to be used for flight planning purposes.